CPX286 Details

Departure: Fort Worth Alliance Airport (KAFW)
Arrival: Seattle-Tacoma International Airport (KSEA) at N/A
Route: SWABR5 HUDAD PNH ALS JNC TCH TWF BKE PDT CHINS3
Notes:


Current Weather Information
KAFW 191553Z 18009KT 10SM CLR 32/22 A2999 RMK AO2 SLP137 T03220222
KSEA 191553Z 14006KT 10SM FEW014 BKN028 OVC037 17/12 A3001 RMK AO2 SLP167 T01720122